Time;durP1;ratioP1;P1;durP2;ratioP2;P2;SDS_P1;SDS_P2;PMS_P1;PMS_P2;Temp;Humidity;BMP_temperature;BMP_pressure;BME280_temperature;BME280_humidity;BME280_pressure;Samples;Min_cycle;Max_cycle;Signal;HPM_P1;HPM_P2
2022/05/06 00:02:02;;;;;;;;;25.00;22.67;;;;;14.73;59.57;101937.44;5057400;27;45368;-57
2022/05/06 00:04:28;;;;;;;;;18.67;17.00;;;;;14.68;60.02;101934.13;5057341;27;45390;-57
2022/05/06 00:06:53;;;;;;;;;19.25;18.50;;;;;14.48;59.98;101915.56;5056761;28;46800;-60
2022/05/06 00:09:19;;;;;;;;;21.75;20.50;;;;;14.58;60.19;101938.22;5056025;28;45375;-65
2022/05/06 00:11:44;;;;;;;;;18.00;17.25;;;;;14.55;60.49;101933.03;5065326;28;45328;-61
2022/05/06 00:14:10;;;;;;;;;21.00;20.50;;;;;14.47;60.34;101923.69;5069349;27;45579;-62
2022/05/06 00:16:35;;;;;;;;;24.50;19.50;;;;;14.44;59.87;101930.88;5072409;27;46725;-59
2022/05/06 00:19:01;;;;;;;;;22.67;21.00;;;;;14.55;59.89;101933.03;5054942;28;45570;-62
2022/05/06 00:21:26;;;;;;;;;26.00;20.75;;;;;14.58;59.81;101926.63;5056698;28;45537;-62
2022/05/06 00:23:52;;;;;;;;;22.25;22.25;;;;;14.52;60.09;101919.81;5055814;28;45507;-62
2022/05/06 00:26:18;;;;;;;;;25.33;22.67;;;;;14.59;60.11;101923.91;5059170;28;45252;-64
2022/05/06 00:28:43;;;;;;;;;20.67;20.67;;;;;14.64;59.99;101929.88;5061646;27;45530;-62
2022/05/06 00:31:09;;;;;;;;;23.00;21.00;;;;;14.69;60.64;101930.50;5055501;28;45266;-65
2022/05/06 00:33:34;;;;;;;;;21.50;21.00;;;;;14.67;59.60;101932.41;5057368;28;45353;-62
2022/05/06 00:36:02;;;;;;;;;19.00;18.25;;;;;14.66;59.53;101927.97;5056998;28;45658;-62
2022/05/06 00:38:29;;;;;;;;;21.25;20.50;;;;;14.67;59.88;101932.41;5057095;28;45469;-65
2022/05/06 00:40:54;;;;;;;;;21.25;19.00;;;;;14.68;60.38;101928.78;5055909;28;45402;-61
2022/05/06 00:43:21;;;;;;;;;23.33;19.00;;;;;14.64;60.31;101927.19;5054541;28;45672;-63
2022/05/06 00:45:53;;;;;;;;;22.33;18.33;;;;;14.63;60.34;101930.84;5056485;28;46405;-61
2022/05/06 00:48:23;;;;;;;;;28.75;22.00;;;;;14.53;60.49;101918.84;5071979;28;45436;-64
2022/05/06 00:50:49;;;;;;;;;24.50;23.50;;;;;14.50;60.94;101923.50;5057607;28;45457;-62
2022/05/06 00:53:15;;;;;;;;;10.33;10.00;;;;;14.31;61.54;101919.03;5045388;28;45413;-65
2022/05/06 00:55:42;;;;;;;;;30.67;24.00;;;;;14.41;60.79;101927.47;5059635;28;45517;-65
2022/05/06 00:58:08;;;;;;;;;17.67;17.00;;;;;14.49;60.92;101928.00;5058449;28;45489;-63
2022/05/06 01:00:33;;;;;;;;;19.00;15.33;;;;;14.55;60.85;101930.34;5055647;28;45513;-62
2022/05/06 01:02:59;;;;;;;;;24.67;22.67;;;;;14.61;60.73;101932.72;5054889;27;45320;-67
2022/05/06 01:05:26;;;;;;;;;23.50;20.25;;;;;14.54;60.73;101923.25;5056300;27;45405;-61
2022/05/06 01:07:53;;;;;;;;;29.75;24.00;;;;;14.60;60.72;101920.28;5055901;28;45358;-61
2022/05/06 01:10:20;;;;;;;;;25.25;22.25;;;;;14.60;61.11;101912.25;5053909;28;45488;-66
2022/05/06 01:12:47;;;;;;;;;22.00;22.00;;;;;14.61;60.79;101915.78;5054767;28;45663;-63
2022/05/06 01:15:27;;;;;;;;;25.00;23.00;;;;;14.65;60.35;101918.22;5056580;28;45530;-63
2022/05/06 01:17:55;;;;;;;;;28.00;24.75;;;;;14.62;61.16;101915.72;5076574;27;45337;-60
2022/05/06 01:20:22;;;;;;;;;27.00;23.75;;;;;14.60;60.96;101924.78;5061227;27;45415;-57
2022/05/06 01:22:57;;;;;;;;;24.25;18.50;;;;;14.64;60.47;101921.84;5054115;28;45513;-57
2022/05/06 01:25:23;;;;;;;;;22.25;21.00;;;;;14.61;61.08;101926.50;5055748;28;45480;-63
2022/05/06 01:27:55;;;;;;;;;24.75;21.50;;;;;14.56;60.20;101916.00;5054325;27;45264;-66
2022/05/06 01:30:45;;;;;;;;;28.00;24.75;;;;;14.61;60.23;101922.00;5036903;27;45449;-59
2022/05/06 01:33:21;;;;;;;;;24.67;24.33;;;;;14.63;60.35;101925.47;5036813;28;45342;-59
2022/05/06 01:35:49;;;;;;;;;21.33;20.33;;;;;14.60;61.30;101922.09;5045711;28;46795;-60
2022/05/06 01:38:46;;;;;;;;;25.33;25.33;;;;;14.54;61.15;101920.59;5040137;28;45774;-63
2022/05/06 01:41:23;;;;;;;;;30.00;23.75;;;;;14.55;60.87;101924.13;5052900;28;45560;-57
2022/05/06 01:43:54;;;;;;;;;22.50;21.50;;;;;14.51;60.55;101919.88;5055054;27;46109;-60
2022/05/06 01:46:21;;;;;;;;;24.25;21.50;;;;;14.54;61.14;101914.38;5052434;28;45559;-63
2022/05/06 01:48:48;;;;;;;;;24.67;22.33;;;;;14.57;60.56;101915.06;5053144;28;45442;-61
2022/05/06 01:51:15;;;;;;;;;23.67;20.67;;;;;14.46;61.00;101920.13;5058955;28;45524;-60
2022/05/06 01:53:41;;;;;;;;;23.33;21.67;;;;;14.45;60.85;101916.59;5054640;28;45394;-61
2022/05/06 01:56:08;;;;;;;;;21.67;21.67;;;;;14.41;60.99;101917.63;5054560;28;45604;-65
2022/05/06 01:58:34;;;;;;;;;23.75;21.75;;;;;14.39;61.05;101922.22;5054900;28;45396;-66
2022/05/06 02:00:59;;;;;;;;;28.00;22.75;;;;;14.35;61.75;101925.13;5054648;28;45397;-65
2022/05/06 02:06:09;;;;;;;;;23.67;23.33;;;;;14.27;61.26;101921.97;5054965;28;45453;-63
2022/05/06 02:08:34;;;;;;;;;23.00;18.00;;;;;14.28;61.94;101918.34;5054090;27;45229;-59
2022/05/06 02:11:01;;;;;;;;;21.33;18.67;;;;;14.20;61.74;101926.78;5055858;27;45578;-63
2022/05/06 02:13:26;;;;;;;;;27.50;23.50;;;;;14.16;61.39;101923.34;5056103;27;45508;-61
2022/05/06 02:15:52;;;;;;;;;23.25;21.50;;;;;14.14;62.15;101932.41;5072484;28;46142;-65
2022/05/06 02:18:17;;;;;;;;;27.00;23.00;;;;;14.10;62.12;101925.50;5059273;28;45442;-61
2022/05/06 02:20:43;;;;;;;;;22.50;20.50;;;;;14.04;62.97;101923.97;5061569;27;45500;-63
2022/05/06 02:23:08;;;;;;;;;24.25;23.50;;;;;14.04;62.44;101917.75;5058868;28;45353;-59
2022/05/06 02:25:35;;;;;;;;;25.00;23.50;;;;;14.02;62.53;101917.81;5059369;28;46195;-63
2022/05/06 02:28:02;;;;;;;;;24.50;21.50;;;;;14.13;61.94;101923.53;5056991;28;45786;-59
2022/05/06 02:33:23;;;;;;;;;24.25;22.00;;;;;14.17;62.09;101922.41;5058022;28;45547;-64
2022/05/06 02:35:51;;;;;;;;;23.75;21.25;;;;;14.10;62.01;101920.13;5065874;28;48821;-62
2022/05/06 02:38:16;;;;;;;;;29.50;22.75;;;;;14.03;62.47;101924.91;5058695;28;45444;-62
2022/05/06 02:40:42;;;;;;;;;26.00;20.00;;;;;13.95;62.25;101910.19;5055933;28;45529;-59
2022/05/06 02:43:07;;;;;;;;;20.00;18.00;;;;;13.97;62.15;101909.19;5057552;28;45468;-67
2022/05/06 02:45:34;;;;;;;;;22.75;21.50;;;;;13.97;61.87;101914.53;5051941;28;45551;-61
2022/05/06 02:48:00;;;;;;;;;29.50;26.25;;;;;13.95;62.81;101920.91;5057468;28;45491;-63
2022/05/06 02:50:26;;;;;;;;;28.75;24.50;;;;;13.88;62.83;101920.31;5056606;28;45358;-61
2022/05/06 02:52:52;;;;;;;;;29.00;22.25;;;;;13.80;62.97;101918.03;5064315;28;45231;-62
2022/05/06 02:55:18;;;;;;;;;32.25;20.75;;;;;13.79;63.18;101920.75;5058872;28;46653;-60
2022/05/06 02:57:43;;;;;;;;;27.50;21.25;;;;;13.70;63.30;101922.09;5058436;28;45310;-54
2022/05/06 03:00:09;;;;;;;;;27.75;25.75;;;;;13.74;62.89;101933.50;5057857;28;45309;-65
2022/05/06 03:02:35;;;;;;;;;26.50;24.00;;;;;13.75;63.26;101932.53;5055281;28;45568;-64
2022/05/06 03:05:01;;;;;;;;;21.25;21.25;;;;;13.74;63.13;101928.13;5058334;28;45329;-65
2022/05/06 03:07:26;;;;;;;;;29.25;25.50;;;;;13.71;63.53;101928.28;5055600;28;46224;-58
2022/05/06 03:09:55;;;;;;;;;26.00;23.00;;;;;13.60;63.71;101933.28;5067135;28;45572;-64
2022/05/06 03:12:26;;;;;;;;;23.50;23.50;;;;;13.50;63.64;101932.84;5072445;27;45468;-62
2022/05/06 03:14:55;;;;;;;;;28.50;23.75;;;;;13.54;63.62;101927.28;5058042;28;47130;-66
2022/05/06 03:17:21;;;;;;;;;22.75;21.50;;;;;13.58;63.02;101917.31;5057129;28;45389;-66
2022/05/06 03:19:47;;;;;;;;;27.50;25.50;;;;;13.64;63.65;101926.84;5055626;28;45696;-58
2022/05/06 03:22:15;;;;;;;;;22.75;22.75;;;;;13.58;63.55;101931.56;5057539;28;45251;-57
2022/05/06 03:24:41;;;;;;;;;26.00;24.00;;;;;13.54;63.71;101937.09;5058156;27;45294;-62
2022/05/06 03:27:59;;;;;;;;;28.00;23.75;;;;;13.50;64.09;101940.84;5069726;28;45422;-58
2022/05/06 03:29:52;;;;;;;;;29.50;25.75;;;;;13.40;64.05;101932.41;5061866;28;45475;-66
2022/05/06 03:32:18;;;;;;;;;27.00;21.75;;;;;13.41;64.17;101939.50;5058172;28;45480;-60
2022/05/06 03:34:43;;;;;;;;;31.75;24.50;;;;;13.44;63.71;101941.16;5057625;28;45485;-60
2022/05/06 03:37:09;;;;;;;;;31.25;25.25;;;;;13.46;63.96;101937.47;5058129;28;45424;-57
2022/05/06 03:39:35;;;;;;;;;30.00;25.75;;;;;13.45;63.61;101946.44;5057641;27;45495;-64
2022/05/06 03:42:00;;;;;;;;;23.75;23.75;;;;;13.25;63.98;101914.41;5060443;28;45316;-62
2022/05/06 03:44:25;;;;;;;;;26.00;22.25;;;;;13.47;63.85;101941.00;5056038;28;46078;-62
2022/05/06 03:46:51;;;;;;;;;29.00;25.25;;;;;13.47;63.98;101941.88;5057415;28;45347;-59
2022/05/06 03:49:16;;;;;;;;;29.25;22.50;;;;;13.48;63.89;101943.59;5058023;28;45574;-64
2022/05/06 03:51:45;;;;;;;;;27.00;23.50;;;;;13.45;63.53;101938.41;5058170;28;45444;-59
2022/05/06 03:54:10;;;;;;;;;29.75;22.00;;;;;13.44;63.70;101941.16;5057738;27;45332;-59
2022/05/06 03:56:35;;;;;;;;;25.75;24.25;;;;;13.34;64.38;101935.38;5057022;28;45272;-61
2022/05/06 03:59:01;;;;;;;;;34.75;26.25;;;;;13.24;64.50;101928.69;5059541;27;45584;-59
2022/05/06 04:01:26;;;;;;;;;31.25;25.50;;;;;13.21;64.30;101932.38;5057644;28;45546;-62
2022/05/06 04:03:51;;;;;;;;;31.25;26.75;;;;;13.25;64.68;101946.47;5057465;28;46171;-65
2022/05/06 04:06:17;;;;;;;;;32.00;25.75;;;;;13.18;64.56;101945.91;5057153;28;45345;-58
2022/05/06 04:08:42;;;;;;;;;31.50;25.75;;;;;13.18;64.58;101953.91;5057951;28;45596;-57
2022/05/06 04:11:10;;;;;;;;;31.75;28.25;;;;;13.20;64.75;101959.19;5057336;28;45310;-55
2022/05/06 04:13:35;;;;;;;;;34.50;27.50;;;;;13.08;64.75;101949.88;5059844;28;46073;-62
2022/05/06 04:16:01;;;;;;;;;30.00;26.25;;;;;13.06;64.72;101956.22;5058049;27;45744;-59
2022/05/06 04:18:27;;;;;;;;;29.00;27.50;;;;;13.06;64.90;101961.56;5056670;27;45280;-55
2022/05/06 04:23:37;;;;;;;;;29.00;25.50;;;;;13.05;65.19;101960.69;5057244;28;45704;-57
2022/05/06 04:26:04;;;;;;;;;26.25;25.50;;;;;13.00;65.48;101952.00;5054612;28;45476;-60
2022/05/06 04:28:31;;;;;;;;;29.00;25.75;;;;;13.01;65.45;101964.41;5056063;28;45297;-60
2022/05/06 04:30:57;;;;;;;;;32.75;28.75;;;;;12.81;65.69;101951.97;5068346;28;45364;-68
2022/05/06 04:33:26;;;;;;;;;25.75;24.75;;;;;12.89;65.78;101971.19;5070558;27;46257;-59
2022/05/06 04:35:56;;;;;;;;;30.25;26.00;;;;;12.84;65.75;101965.16;5056351;27;45393;-58
2022/05/06 04:38:22;;;;;;;;;25.50;25.25;;;;;12.88;65.74;101973.91;5056835;28;45548;-58
2022/05/06 04:40:48;;;;;;;;;26.75;25.50;;;;;12.86;66.31;101978.44;5055849;28;45844;-59
2022/05/06 04:43:17;;;;;;;;;37.00;30.25;;;;;12.84;65.68;101967.84;5056937;28;45444;-58
2022/05/06 04:45:43;;;;;;;;;27.00;26.00;;;;;12.88;65.51;101974.78;5057399;28;45296;-61
2022/05/06 04:48:11;;;;;;;;;26.50;24.75;;;;;12.90;65.78;101972.06;5072323;27;45350;-61
2022/05/06 04:50:37;;;;;;;;;23.00;19.75;;;;;12.91;65.83;101976.47;5057145;28;45597;-62
2022/05/06 04:53:07;;;;;;;;;32.25;27.00;;;;;12.89;65.51;101978.31;5056274;28;46062;-60
2022/05/06 04:55:43;;;;;;;;;33.75;32.25;;;;;12.85;65.55;101974.06;5056601;28;45242;-57
2022/05/06 04:58:09;;;;;;;;;26.25;24.75;;;;;12.82;65.88;101982.19;5089800;27;45180;-54
2022/05/06 05:00:35;;;;;;;;;36.00;28.75;;;;;12.74;66.06;101979.84;5053132;27;47881;-57
2022/05/06 05:03:02;;;;;;;;;27.25;21.25;;;;;12.79;66.11;101979.66;5056199;28;45502;-58
2022/05/06 05:05:27;;;;;;;;;24.75;22.50;;;;;12.75;66.34;101973.56;5056162;27;45349;-54
2022/05/06 05:07:54;;;;;;;;;29.00;25.50;;;;;12.69;66.04;101997.88;5055091;28;45409;-60
2022/05/06 05:10:20;;;;;;;;;28.25;26.00;;;;;12.71;66.13;101996.00;5059394;28;45580;-63
2022/05/06 05:12:46;;;;;;;;;31.00;28.50;;;;;12.77;66.09;101995.75;5056615;28;45421;-60
2022/05/06 05:15:11;;;;;;;;;25.25;24.25;;;;;12.72;66.53;101996.88;5056035;28;45368;-67
2022/05/06 05:17:37;;;;;;;;;32.75;27.50;;;;;12.73;66.24;101990.59;5056300;28;45381;-60
2022/05/06 05:20:03;;;;;;;;;32.75;28.50;;;;;12.75;65.81;101989.59;5072088;28;45275;-64
2022/05/06 05:22:31;;;;;;;;;31.50;29.75;;;;;12.86;65.36;101987.31;5056302;28;45435;-64
2022/05/06 05:24:57;;;;;;;;;28.00;24.75;;;;;12.93;65.60;101987.94;5070363;27;45474;-59
2022/05/06 05:27:22;;;;;;;;;31.50;26.75;;;;;12.88;65.36;101974.78;5059705;27;45436;-62
2022/05/06 05:29:48;;;;;;;;;23.25;23.00;;;;;13.00;65.04;101990.25;5067464;27;45638;-63
2022/05/06 05:32:14;;;;;;;;;30.50;29.75;;;;;12.95;65.54;101992.28;5063047;27;46542;-63
2022/05/06 05:34:42;;;;;;;;;31.50;20.75;;;;;12.94;65.37;101985.22;5056854;27;45502;-66
2022/05/06 05:37:08;;;;;;;;;39.75;33.25;;;;;12.95;65.55;102002.09;5060120;28;45362;-66
2022/05/06 05:39:35;;;;;;;;;25.75;25.75;;;;;12.95;65.17;101997.63;5056077;27;45250;-61
2022/05/06 05:42:00;;;;;;;;;26.75;25.75;;;;;12.99;65.16;101988.53;5054612;27;45471;-62
2022/05/06 05:49:53;;;;;;;;;28.50;27.00;;;;;13.24;64.27;102004.38;5055933;28;45274;-64
2022/05/06 05:52:18;;;;;;;;;32.75;26.50;;;;;13.19;64.87;102005.53;5068979;28;46187;-65
2022/05/06 05:54:44;;;;;;;;;32.00;28.00;;;;;13.11;64.41;102007.63;5057018;27;45249;-62
2022/05/06 05:57:09;;;;;;;;;30.50;27.00;;;;;13.18;64.27;102009.09;5055294;28;45777;-65
2022/05/06 05:59:35;;;;;;;;;30.25;23.50;;;;;13.21;64.60;101995.63;5055376;28;45280;-58
2022/05/06 06:02:04;;;;;;;;;37.75;29.00;;;;;13.38;64.51;102006.41;5058248;27;46204;-64
2022/05/06 06:04:30;;;;;;;;;34.75;31.50;;;;;13.36;63.85;101996.75;5053570;27;45606;-56
2022/05/06 06:06:56;;;;;;;;;28.50;27.00;;;;;13.41;63.86;101986.69;5061938;28;45569;-64
2022/05/06 06:09:22;;;;;;;;;27.50;26.50;;;;;13.45;63.72;101983.84;5052746;28;45518;-66
2022/05/06 06:11:49;;;;;;;;;33.50;27.50;;;;;13.54;64.10;101986.09;5054917;27;45391;-65
2022/05/06 06:14:15;;;;;;;;;30.00;30.00;;;;;13.62;64.04;101984.84;5052128;27;45456;-63
2022/05/06 06:16:41;;;;;;;;;34.75;31.50;;;;;13.69;63.25;101989.00;5055270;27;45437;-65
2022/05/06 06:19:06;;;;;;;;;29.50;28.00;;;;;13.61;63.76;101999.16;5055108;28;45341;-64
2022/05/06 06:21:31;;;;;;;;;32.25;29.00;;;;;13.57;63.35;101996.66;5050270;28;45482;-64
2022/05/06 06:23:57;;;;;;;;;37.50;30.75;;;;;13.56;64.00;101997.59;5052328;27;46076;-61
2022/05/06 06:26:22;;;;;;;;;36.75;29.50;;;;;13.66;63.49;102003.34;5051818;28;45763;-62
2022/05/06 06:28:49;;;;;;;;;32.50;28.00;;;;;13.70;63.51;102001.41;5055356;28;45512;-60
2022/05/06 06:31:15;;;;;;;;;29.00;28.75;;;;;13.76;62.82;101995.78;5051231;27;46510;-61
2022/05/06 06:33:40;;;;;;;;;36.50;31.00;;;;;13.81;62.52;101999.13;5054994;28;45371;-60
2022/05/06 06:36:10;;;;;;;;;33.25;30.00;;;;;13.82;62.43;102000.84;5052986;28;45492;-63
2022/05/06 06:38:35;;;;;;;;;27.75;26.25;;;;;13.86;62.88;102007.78;5054071;28;45668;-62
2022/05/06 06:41:01;;;;;;;;;44.00;33.50;;;;;13.81;62.42;102010.69;5048190;27;46403;-64
2022/05/06 06:43:27;;;;;;;;;43.75;37.00;;;;;13.82;62.98;102003.53;5055250;27;45524;-57
2022/05/06 06:45:53;;;;;;;;;38.00;33.75;;;;;13.95;63.28;102011.84;5053098;28;45402;-59
2022/05/06 06:48:19;;;;;;;;;36.50;34.00;;;;;14.02;62.60;102008.78;5053121;28;45490;-60
2022/05/06 06:50:44;;;;;;;;;38.75;33.75;;;;;14.05;63.20;102005.94;5042517;28;45525;-64
2022/05/06 06:53:10;;;;;;;;;37.00;33.25;;;;;14.05;62.70;102002.41;5054731;28;45440;-61
2022/05/06 06:55:36;;;;;;;;;38.75;34.50;;;;;14.09;63.39;102010.22;5049643;28;45659;-64
2022/05/06 06:58:02;;;;;;;;;40.50;34.25;;;;;14.10;63.38;102009.28;5050972;27;45584;-59
2022/05/06 07:00:27;;;;;;;;;41.25;34.75;;;;;14.06;63.31;102012.16;5055642;27;45920;-58
2022/05/06 07:02:55;;;;;;;;;41.25;36.75;;;;;14.11;63.46;102012.81;5062224;28;45191;-58
2022/05/06 07:05:22;;;;;;;;;41.00;32.00;;;;;14.10;63.64;102005.75;5054660;28;45444;-57
2022/05/06 07:13:17;;;;;;;;;40.75;35.00;;;;;14.09;63.82;102009.38;5061489;28;45643;-65
2022/05/06 07:15:42;;;;;;;;;37.75;35.00;;;;;14.02;64.07;102002.56;5073684;27;45362;-65
2022/05/06 07:18:07;;;;;;;;;44.50;33.25;;;;;14.07;64.18;102001.41;5057690;27;45535;-60
2022/05/06 07:20:33;;;;;;;;;38.25;35.00;;;;;14.09;64.17;102015.56;5058397;27;45456;-58
2022/05/06 07:22:59;;;;;;;;;35.00;32.50;;;;;14.12;63.84;102012.75;5052852;28;45397;-60
2022/05/06 07:25:24;;;;;;;;;25.00;23.00;;;;;14.17;64.09;102018.72;5046652;28;45451;-61
2022/05/06 07:27:50;;;;;;;;;42.25;34.75;;;;;14.09;64.29;102012.91;5060179;28;45484;-60
2022/05/06 07:30:15;;;;;;;;;34.50;31.00;;;;;14.24;64.09;102013.97;5056333;27;45522;-59
2022/05/06 07:32:41;;;;;;;;;38.75;35.00;;;;;14.33;63.78;102007.31;5057833;28;45324;-60
2022/05/06 07:35:07;;;;;;;;;30.25;30.25;;;;;14.35;62.77;101998.25;5058023;27;45294;-57
2022/05/06 07:37:33;;;;;;;;;40.75;33.75;;;;;14.43;63.66;102024.63;5058308;28;45645;-61
2022/05/06 07:40:03;;;;;;;;;34.75;32.00;;;;;14.47;62.92;102020.91;5057482;27;45288;-61
2022/05/06 07:42:30;;;;;;;;;41.25;28.75;;;;;14.53;62.50;102020.59;5056163;27;45415;-57
2022/05/06 07:44:59;;;;;;;;;32.50;32.00;;;;;14.47;62.49;102015.56;5058020;28;45412;-61
2022/05/06 07:47:26;;;;;;;;;39.75;30.50;;;;;14.53;63.09;102015.22;5056905;28;45588;-59
2022/05/06 07:49:51;;;;;;;;;34.00;33.50;;;;;14.64;62.52;102025.41;5057590;28;45481;-61
2022/05/06 07:52:18;;;;;;;;;41.00;33.25;;;;;14.67;62.56;102028.78;5057289;28;45344;-59
2022/05/06 07:54:43;;;;;;;;;31.50;29.00;;;;;14.68;62.04;102019.81;5073403;27;45413;-61
2022/05/06 07:57:09;;;;;;;;;25.00;21.75;;;;;14.73;62.56;102017.78;5057695;28;45320;-56
2022/05/06 07:59:34;;;;;;;;;33.00;31.00;;;;;14.87;62.19;102016.22;5057420;28;46494;-58
2022/05/06 08:04:48;;;;;;;;;40.00;32.75;;;;;14.88;61.83;102013.44;5057576;28;45323;-59
2022/05/06 08:07:14;;;;;;;;;33.25;27.50;;;;;14.87;62.12;102008.19;5056403;28;45374;-58
2022/05/06 08:09:41;;;;;;;;;30.00;25.75;;;;;15.04;61.76;102016.19;5057338;28;46357;-60
2022/05/06 08:12:07;;;;;;;;;29.00;27.75;;;;;14.94;61.66;101998.88;5073208;28;45433;-63
2022/05/06 08:14:33;;;;;;;;;25.25;18.00;;;;;15.06;61.55;102014.31;5056181;28;45416;-58
2022/05/06 08:17:02;;;;;;;;;26.75;24.50;;;;;15.20;61.64;102017.13;5057581;27;45771;-57
2022/05/06 08:19:28;;;;;;;;;34.33;26.00;;;;;15.38;61.36;102017.97;5057234;27;47622;-57
2022/05/06 08:21:54;;;;;;;;;28.25;21.25;;;;;15.56;60.30;102016.09;5057397;28;45402;-60
2022/05/06 08:24:20;;;;;;;;;30.33;25.00;;;;;15.74;60.00;102009.75;5057433;28;45291;-57
2022/05/06 08:26:47;;;;;;;;;24.67;19.33;;;;;15.98;59.64;102003.97;5057330;28;45640;-57
2022/05/06 08:29:13;;;;;;;;;23.67;19.33;;;;;16.50;58.33;101997.34;5055779;28;45417;-56
2022/05/06 08:31:39;;;;;;;;;18.67;17.33;;;;;16.96;57.00;101993.81;5072493;27;45313;-58
2022/05/06 08:34:09;;;;;;;;;17.67;16.00;;;;;17.24;55.98;101984.91;5056700;28;45468;-59
2022/05/06 08:36:36;;;;;;;;;24.33;21.33;;;;;17.54;55.00;101991.03;5072273;27;45596;-59
2022/05/06 08:39:04;;;;;;;;;26.00;20.00;;;;;17.89;53.67;101996.06;5056795;28;45605;-57
2022/05/06 08:41:32;;;;;;;;;13.33;13.33;;;;;18.12;52.72;101997.25;5057218;28;45386;-56
2022/05/06 08:50:50;;;;;;;;;15.00;14.00;;;;;18.48;52.73;101991.25;5056994;28;45328;-62
2022/05/06 08:52:16;;;;;;;;;9.00;9.00;;;;;19.82;49.32;101978.31;5056133;28;45227;-58
2022/05/06 08:54:42;;;;;;;;;8.33;8.33;;;;;20.32;47.58;101978.13;5056685;28;45244;-60
2022/05/06 08:57:07;;;;;;;;;10.67;8.67;;;;;20.59;46.93;101986.03;5056875;28;45504;-61
2022/05/06 08:59:33;;;;;;;;;10.00;9.00;;;;;20.77;44.87;101977.47;5056272;27;45362;-59
2022/05/06 09:01:59;;;;;;;;;10.00;10.00;;;;;21.04;43.87;101972.63;5054989;28;45450;-61
2022/05/06 09:04:25;;;;;;;;;11.67;11.00;;;;;21.29;43.26;101968.03;5056346;27;45261;-60
2022/05/06 09:07:12;;;;;;;;;7.00;7.00;;;;;21.19;42.42;101955.19;5038344;27;45627;-60
2022/05/06 09:09:38;;;;;;;;;10.00;10.00;;;;;21.35;43.84;101972.94;5071716;27;46826;-61
2022/05/06 09:17:44;;;;;;;;;8.00;8.00;;;;;22.61;41.20;101964.31;5056600;28;45223;-61
2022/05/06 09:20:18;;;;;;;;;9.67;9.67;;;;;22.92;41.75;101968.88;5054776;27;46161;-62
2022/05/06 09:22:44;;;;;;;;;10.75;10.75;;;;;23.20;39.64;101971.91;5055754;28;45425;-59
2022/05/06 09:25:10;;;;;;;;;10.50;9.50;;;;;23.45;39.10;101971.47;5054650;28;45366;-58
2022/05/06 09:27:35;;;;;;;;;10.67;10.67;;;;;23.62;39.27;101971.84;5055404;28;45592;-61
2022/05/06 09:30:09;;;;;;;;;14.00;11.33;;;;;23.66;38.95;101962.41;5056243;27;46091;-60
2022/05/06 09:32:36;;;;;;;;;11.00;9.75;;;;;23.95;38.99;101960.63;5054865;28;45361;-62
2022/05/06 09:35:11;;;;;;;;;10.25;10.25;;;;;24.12;36.42;101959.09;5056323;28;45223;-60
2022/05/06 09:37:37;;;;;;;;;9.25;9.00;;;;;23.99;36.08;101962.09;5056484;28;45532;-60
2022/05/06 09:40:12;;;;;;;;;13.00;10.00;;;;;23.94;36.54;101956.19;5056035;27;45546;-60
2022/05/06 09:42:39;;;;;;;;;10.00;8.50;;;;;23.88;36.00;101958.63;5054541;27;45365;-56
2022/05/06 09:45:06;;;;;;;;;8.50;8.50;;;;;24.05;36.02;101961.50;5054527;28;45463;-58
2022/05/06 09:47:33;;;;;;;;;9.25;7.00;;;;;24.04;35.81;101967.09;5056624;28;45569;-57
2022/05/06 09:49:59;;;;;;;;;12.00;10.00;;;;;24.44;36.63;101953.44;5071653;28;46164;-59
2022/05/06 09:52:25;;;;;;;;;11.00;9.50;;;;;24.70;35.25;101953.69;5054467;28;45393;-58
2022/05/06 09:54:53;;;;;;;;;8.75;8.75;;;;;24.89;34.30;101952.84;5055852;28;45340;-58
2022/05/06 09:57:18;;;;;;;;;14.00;9.50;;;;;24.84;35.04;101944.22;5055947;28;45376;-57
2022/05/06 09:59:45;;;;;;;;;9.00;9.00;;;;;24.71;35.28;101945.38;5071185;27;45554;-57
2022/05/06 10:02:10;;;;;;;;;11.75;10.00;;;;;24.76;34.92;101941.41;5055534;28;45466;-56
2022/05/06 10:04:37;;;;;;;;;12.75;12.75;;;;;24.76;34.76;101935.97;5055755;28;45331;-58
2022/05/06 10:07:06;;;;;;;;;14.50;12.50;;;;;24.95;35.65;101935.91;5071862;28;45468;-60
2022/05/06 10:09:40;;;;;;;;;11.75;9.00;;;;;25.16;34.38;101950.22;5055734;28;45367;-58
2022/05/06 10:12:09;;;;;;;;;10.75;10.75;;;;;24.94;34.59;101936.91;5055258;28;45328;-59
2022/05/06 10:14:36;;;;;;;;;11.00;9.50;;;;;24.95;35.70;101941.34;5056192;28;45456;-59
2022/05/06 10:17:02;;;;;;;;;8.00;8.00;;;;;24.95;35.22;101939.47;5054601;28;45457;-60
2022/05/06 10:19:44;;;;;;;;;16.75;13.75;;;;;24.91;34.80;101940.78;5055283;28;46186;-62
2022/05/06 10:22:10;;;;;;;;;8.75;7.25;;;;;24.75;34.60;101936.97;5055466;28;45537;-59
2022/05/06 10:24:49;;;;;;;;;13.00;13.00;;;;;24.18;34.94;101935.94;5055565;28;45544;-61
2022/05/06 10:33:14;;;;;;;;;12.75;10.25;;;;;22.95;37.10;101941.50;5055015;28;45433;-58
2022/05/06 10:35:48;;;;;;;;;8.50;8.50;;;;;22.63;37.58;101940.66;5055602;28;45374;-58
2022/05/06 10:38:22;;;;;;;;;8.67;8.33;;;;;22.50;37.23;101929.13;5057555;28;45234;-59
2022/05/06 10:40:51;;;;;;;;;9.00;9.00;;;;;22.11;37.64;101939.63;5058616;28;45502;-59
2022/05/06 10:43:41;;;;;;;;;11.00;10.25;;;;;21.87;38.38;101936.22;5058284;28;45330;-59
2022/05/06 10:46:08;;;;;;;;;8.00;8.00;;;;;21.72;38.29;101928.38;5058818;28;45353;-57
2022/05/06 10:48:33;;;;;;;;;9.00;9.00;;;;;21.65;38.77;101920.88;5059372;28;45559;-58
2022/05/06 10:51:21;;;;;;;;;9.33;9.33;;;;;21.64;37.99;101930.00;5058341;28;46158;-60
2022/05/06 10:53:47;;;;;;;;;10.33;10.33;;;;;21.63;39.47;101920.16;5058342;28;45922;-59
2022/05/06 10:56:14;;;;;;;;;9.33;9.33;;;;;21.67;38.98;101925.19;5058447;28;45360;-57
2022/05/06 10:58:40;;;;;;;;;8.00;8.00;;;;;21.56;38.32;101911.66;5058091;28;45453;-58
2022/05/06 11:01:06;;;;;;;;;9.00;9.00;;;;;21.47;39.69;101923.22;5058641;28;46251;-57
2022/05/06 11:03:31;;;;;;;;;10.67;10.67;;;;;21.55;39.61;101931.59;5058499;28;45433;-58
2022/05/06 11:05:57;;;;;;;;;6.33;6.33;;;;;21.65;38.91;101924.47;5057085;28;45447;-60
2022/05/06 11:08:33;;;;;;;;;8.33;8.33;;;;;21.72;39.26;101913.97;5056783;28;45684;-58
2022/05/06 11:10:58;;;;;;;;;8.33;8.00;;;;;21.73;37.56;101915.69;5058145;27;45345;-57
2022/05/06 11:13:25;;;;;;;;;8.33;8.00;;;;;21.70;39.10;101895.16;5058284;27;45199;-59
2022/05/06 11:15:51;;;;;;;;;8.00;8.00;;;;;21.56;38.12;101905.38;5058302;27;45263;-59
2022/05/06 11:18:19;;;;;;;;;9.33;9.33;;;;;21.43;38.69;101906.38;5058368;28;45373;-60
2022/05/06 11:20:44;;;;;;;;;11.67;8.67;;;;;21.43;38.93;101895.56;5057787;27;46156;-58
2022/05/06 11:23:13;;;;;;;;;9.00;8.00;;;;;21.58;38.25;101898.84;5057853;27;45406;-58
2022/05/06 11:25:50;;;;;;;;;6.33;6.33;;;;;21.69;37.88;101906.09;5057940;27;45331;-58
2022/05/06 11:28:20;;;;;;;;;7.33;7.33;;;;;21.89;37.50;101902.63;5058087;28;45223;-58
2022/05/06 11:30:49;;;;;;;;;8.00;6.00;;;;;21.94;36.80;101888.69;5057838;27;45392;-58
2022/05/06 11:33:25;;;;;;;;;8.00;6.33;;;;;21.99;36.87;101903.56;5057495;27;45310;-60
2022/05/06 11:35:53;;;;;;;;;6.33;6.33;;;;;22.01;36.95;101889.91;5058104;28;45299;-59
2022/05/06 11:38:30;;;;;;;;;7.00;7.00;;;;;22.12;37.08;101895.28;5058343;28;45483;-59
2022/05/06 11:41:04;;;;;;;;;9.00;8.00;;;;;22.00;37.94;101886.31;5057902;27;45409;-57
2022/05/06 11:43:30;;;;;;;;;9.00;7.67;;;;;22.18;36.74;101893.94;5057787;27;45472;-62
2022/05/06 11:48:42;;;;;;;;;7.00;7.00;;;;;22.25;36.52;101884.28;5057890;28;45291;-59
2022/05/06 11:51:10;;;;;;;;;9.00;7.00;;;;;22.12;37.07;101892.59;5056789;28;47156;-60
2022/05/06 11:53:39;;;;;;;;;7.00;7.00;;;;;22.18;37.32;101881.25;5057830;28;45460;-59
2022/05/06 11:56:06;;;;;;;;;7.25;7.25;;;;;22.42;36.43;101882.88;5072889;28;45380;-59